createdAt,value
2022-10-05T00:00:36.253Z,70.57
2022-10-05T00:03:27.264Z,68.81
2022-10-05T00:06:11.967Z,69.48
2022-10-05T00:08:55.451Z,68.96
2022-10-05T00:11:42.131Z,68.51
2022-10-05T00:17:50.365Z,66.15
2022-10-05T00:23:24.144Z,67.65
2022-10-05T00:26:13.215Z,66.55
2022-10-05T00:28:56.569Z,68.91
2022-10-05T00:31:52.682Z,69.05
2022-10-05T00:34:32.287Z,68.51
2022-10-05T00:37:35.880Z,67.96
2022-10-05T00:40:38.920Z,68.22
2022-10-05T00:43:39.580Z,67.25
2022-10-05T00:46:27.350Z,65.69
2022-10-05T00:49:23.627Z,65.48
2022-10-05T00:52:11.293Z,64.71
2022-10-05T00:55:06.256Z,65.74
2022-10-05T00:58:12.991Z,63.96
2022-10-05T01:01:20.456Z,63.81
2022-10-05T01:04:01.878Z,65.67
2022-10-05T01:06:49.045Z,61.29
2022-10-05T01:09:45.338Z,60.64
2022-10-05T01:12:48.667Z,60.50
2022-10-05T01:15:46.992Z,60.60
2022-10-05T01:18:35.488Z,60.34
2022-10-05T01:21:29.300Z,60.08
2022-10-05T01:24:49.961Z,60.35
2022-10-05T01:28:07.579Z,60.52
2022-10-05T01:30:50.451Z,58.85
2022-10-05T01:33:38.233Z,59.42
2022-10-05T01:36:40.260Z,59.05
2022-10-05T01:39:23.330Z,56.81
2022-10-05T01:42:11.004Z,58.26
2022-10-05T01:45:06.187Z,58.10
2022-10-05T01:51:12.513Z,57.66
2022-10-05T01:54:09.954Z,58.35
2022-10-05T02:00:23.267Z,59.10
2022-10-05T02:03:34.318Z,57.26
2022-10-05T02:06:17.620Z,58.36
2022-10-05T02:09:01.419Z,57.29
2022-10-05T02:11:43.123Z,57.68
2022-10-05T02:14:32.363Z,58.72
2022-10-05T02:20:24.273Z,58.43
2022-10-05T02:23:07.344Z,57.18
2022-10-05T02:29:13.033Z,55.23
2022-10-05T02:34:51.226Z,55.14
2022-10-05T02:38:17.655Z,56.53
2022-10-05T02:41:11.166Z,56.98
2022-10-05T02:44:12.365Z,58.23
2022-10-05T02:47:11.113Z,58.31
2022-10-05T02:50:00.810Z,59.45
2022-10-05T02:53:00.764Z,58.66
2022-10-05T02:55:56.751Z,59.27
2022-10-05T02:59:22.581Z,58.19
2022-10-05T03:02:21.865Z,57.08
2022-10-05T03:05:05.006Z,57.39
2022-10-05T03:08:00.920Z,55.33
2022-10-05T03:16:58.609Z,55.45
2022-10-05T03:20:04.718Z,56.31
2022-10-05T03:22:57.263Z,55.85
2022-10-05T03:25:57.007Z,56.21
2022-10-05T03:28:41.082Z,55.53
2022-10-05T03:31:37.432Z,56.56
2022-10-05T03:34:27.440Z,58.05
2022-10-05T03:37:15.614Z,59.09
2022-10-05T03:40:28.011Z,57.21
2022-10-05T03:43:41.894Z,59.85
2022-10-05T03:46:39.038Z,59.93
2022-10-05T03:49:39.019Z,58.94
2022-10-05T03:52:19.902Z,58.29
2022-10-05T03:55:03.791Z,60.38
2022-10-05T03:57:48.406Z,58.79
2022-10-05T04:00:32.826Z,61.92
2022-10-05T04:03:37.030Z,63.59
2022-10-05T04:06:20.277Z,60.70
2022-10-05T04:09:27.474Z,60.11
2022-10-05T04:12:23.037Z,63.10
2022-10-05T04:15:07.085Z,64.90
2022-10-05T04:18:10.377Z,66.91
2022-10-05T04:21:03.202Z,65.93
2022-10-05T04:24:09.722Z,63.82
2022-10-05T04:27:00.498Z,65.82
2022-10-05T04:29:44.603Z,67.07
2022-10-05T04:32:45.226Z,66.76
2022-10-05T04:36:13.302Z,65.16
2022-10-05T04:39:14.496Z,63.38
2022-10-05T04:42:08.852Z,63.98
2022-10-05T04:45:26.835Z,62.50
2022-10-05T04:48:43.870Z,60.61
2022-10-05T04:51:41.247Z,60.73
2022-10-05T04:54:53.435Z,59.34
2022-10-05T04:57:42.335Z,58.75
2022-10-05T05:01:08.048Z,56.94
2022-10-05T05:04:42.452Z,57.59
2022-10-05T05:11:20.089Z,55.73
2022-10-05T05:15:06.469Z,56.39
2022-10-05T05:21:48.960Z,57.17
2022-10-05T05:27:54.822Z,55.74
2022-10-05T05:30:52.939Z,55.21
2022-10-05T05:33:56.952Z,56.01
2022-10-05T05:37:04.166Z,56.09
2022-10-05T05:39:43.851Z,56.09
2022-10-05T05:42:28.339Z,56.93
2022-10-05T05:45:27.820Z,58.32
2022-10-05T05:51:45.966Z,58.60
2022-10-05T05:54:41.747Z,57.20
2022-10-05T05:57:28.349Z,54.15
2022-10-05T06:00:13.732Z,56.32
2022-10-05T06:03:18.631Z,54.86
2022-10-05T06:06:02.360Z,55.09
2022-10-05T06:08:49.756Z,54.76
2022-10-05T06:11:35.975Z,54.77
2022-10-05T06:14:21.898Z,55.67
2022-10-05T06:17:07.228Z,55.64
2022-10-05T06:19:59.925Z,54.51
2022-10-05T06:22:57.350Z,52.29
2022-10-05T06:25:57.050Z,51.22
2022-10-05T06:28:42.546Z,52.64
2022-10-05T06:31:45.238Z,54.38
2022-10-05T06:34:49.788Z,53.85
2022-10-05T06:37:56.401Z,54.75
2022-10-05T06:41:15.569Z,53.37
2022-10-05T06:44:18.344Z,54.53
2022-10-05T06:47:24.333Z,54.94
2022-10-05T06:50:08.537Z,54.90
2022-10-05T06:53:05.496Z,55.83
2022-10-05T06:56:09.316Z,57.71
2022-10-05T06:58:58.097Z,57.69
2022-10-05T07:01:47.832Z,58.06
2022-10-05T07:04:51.390Z,58.23
2022-10-05T07:07:38.565Z,58.72
2022-10-05T07:10:44.754Z,59.30
2022-10-05T07:17:56.663Z,61.15
2022-10-05T07:20:45.635Z,61.57
2022-10-05T07:23:55.684Z,62.95
2022-10-05T07:26:55.562Z,64.40
2022-10-05T07:29:55.909Z,64.43
2022-10-05T07:32:39.819Z,64.76
2022-10-05T07:38:59.465Z,65.88
2022-10-05T07:42:22.280Z,66.12
2022-10-05T07:45:05.459Z,64.92
2022-10-05T07:47:58.912Z,64.01
2022-10-05T07:51:13.552Z,63.79
2022-10-05T07:54:08.401Z,64.28
2022-10-05T07:57:01.901Z,65.01
2022-10-05T08:02:47.552Z,64.66
2022-10-05T08:05:44.127Z,63.83
2022-10-05T08:08:46.043Z,65.27
2022-10-05T08:11:31.763Z,64.93
2022-10-05T08:14:16.668Z,65.64
2022-10-05T08:16:57.327Z,66.31
2022-10-05T08:19:46.568Z,65.79
2022-10-05T08:22:32.945Z,65.99
2022-10-05T08:29:25.859Z,66.91
2022-10-05T08:32:11.849Z,66.33
2022-10-05T08:34:57.769Z,64.88
2022-10-05T08:37:44.530Z,64.99
2022-10-05T08:40:57.753Z,64.95
2022-10-05T08:44:01.495Z,65.99
2022-10-05T08:47:19.390Z,67.29
2022-10-05T08:50:41.348Z,67.91
2022-10-05T08:53:50.072Z,68.89
2022-10-05T08:56:53.549Z,68.80
2022-10-05T08:59:57.831Z,69.66
2022-10-05T09:02:51.824Z,69.85
2022-10-05T09:06:14.309Z,70.96
2022-10-05T09:09:41.590Z,73.20
2022-10-05T09:13:00.389Z,73.54
2022-10-05T09:16:21.333Z,73.97
2022-10-05T09:19:30.915Z,74.66
2022-10-05T09:22:22.914Z,74.66
2022-10-05T09:25:18.903Z,75.19
2022-10-05T09:28:14.438Z,75.92
2022-10-05T09:31:09.645Z,76.41
2022-10-05T09:34:27.547Z,77.32
2022-10-05T09:37:46.837Z,78.23
2022-10-05T09:40:59.288Z,78.33
2022-10-05T09:44:28.549Z,78.39
2022-10-05T09:47:41.225Z,76.37
2022-10-05T09:55:19.575Z,73.85
2022-10-05T09:58:35.933Z,72.93
2022-10-05T10:01:39.074Z,73.67
2022-10-05T10:04:49.727Z,73.13
2022-10-05T10:08:02.190Z,72.91
2022-10-05T10:11:05.800Z,73.02
2022-10-05T10:14:19.526Z,74.25
2022-10-05T10:17:19.877Z,73.61
2022-10-05T10:20:38.597Z,73.88
2022-10-05T10:27:29.578Z,73.97
2022-10-05T10:31:11.171Z,74.20
2022-10-05T10:34:54.499Z,74.61
2022-10-05T10:38:06.784Z,74.45
2022-10-05T10:41:15.430Z,74.46
2022-10-05T10:44:29.672Z,75.57
2022-10-05T10:50:28.311Z,75.55
2022-10-05T10:53:21.439Z,75.60
2022-10-05T10:56:30.600Z,75.13
2022-10-05T10:59:52.063Z,75.86
2022-10-05T11:03:11.142Z,77.17
2022-10-05T11:06:17.183Z,77.53
2022-10-05T11:09:19.480Z,78.70
2022-10-05T11:15:56.308Z,78.69
2022-10-05T11:19:01.786Z,79.11
2022-10-05T11:22:02.525Z,79.84
2022-10-05T11:25:25.571Z,80.89
2022-10-05T11:28:45.003Z,80.44
2022-10-05T11:31:57.012Z,80.67
2022-10-05T11:35:18.969Z,80.84
2022-10-05T11:38:21.265Z,80.03
2022-10-05T11:41:43.246Z,79.54
2022-10-05T11:44:55.952Z,78.96
2022-10-05T11:48:14.053Z,79.01
2022-10-05T11:51:13.653Z,79.00
2022-10-05T11:54:05.144Z,78.47
2022-10-05T11:56:44.665Z,77.88
2022-10-05T11:59:53.431Z,77.89
2022-10-05T12:03:17.858Z,76.75
2022-10-05T12:06:11.505Z,75.31
2022-10-05T12:09:04.805Z,73.98
2022-10-05T12:12:23.089Z,71.77
2022-10-05T12:15:14.569Z,71.58
2022-10-05T12:18:06.186Z,71.28
2022-10-05T12:20:55.957Z,70.32
2022-10-05T12:24:00.294Z,69.08
2022-10-05T12:27:06.731Z,68.35
2022-10-05T12:30:09.959Z,69.84
2022-10-05T12:33:11.526Z,71.48
2022-10-05T12:36:07.177Z,72.06
2022-10-05T12:39:04.032Z,73.77
2022-10-05T12:41:57.809Z,75.63
2022-10-05T12:44:56.952Z,76.98
2022-10-05T12:47:54.422Z,77.92
2022-10-05T12:51:21.835Z,78.26
2022-10-05T12:54:17.006Z,78.60
2022-10-05T12:57:12.730Z,78.81
2022-10-05T13:00:00.197Z,79.01
2022-10-05T13:09:25.129Z,80.16
2022-10-05T13:12:16.010Z,80.42
2022-10-05T13:15:16.501Z,80.90
2022-10-05T13:18:10.352Z,81.24
2022-10-05T13:21:01.921Z,81.43
2022-10-05T13:24:10.225Z,81.50
2022-10-05T13:26:55.849Z,81.29
2022-10-05T13:29:51.057Z,81.58
2022-10-05T13:32:43.467Z,81.71
2022-10-05T13:35:49.081Z,81.01
2022-10-05T13:38:37.072Z,80.06
2022-10-05T13:41:28.204Z,79.52
2022-10-05T13:44:46.762Z,79.39
2022-10-05T13:48:57.820Z,78.39
2022-10-05T13:51:10.328Z,77.74
2022-10-05T13:54:03.477Z,77.60
2022-10-05T13:56:59.239Z,77.37
2022-10-05T14:00:15.136Z,77.81
2022-10-05T14:03:18.322Z,77.84
2022-10-05T14:06:10.166Z,77.65
2022-10-05T14:11:55.296Z,77.85
2022-10-05T14:14:47.432Z,77.45
2022-10-05T14:17:46.686Z,77.38
2022-10-05T14:20:37.556Z,77.98
2022-10-05T14:23:32.832Z,77.97
2022-10-05T14:26:27.957Z,77.71
2022-10-05T14:29:24.236Z,77.21
2022-10-05T14:32:31.775Z,77.14
2022-10-05T14:35:37.858Z,77.00
2022-10-05T14:38:28.725Z,77.54
2022-10-05T14:41:22.409Z,77.98
2022-10-05T14:44:10.846Z,78.35
2022-10-05T14:47:00.292Z,78.79
2022-10-05T14:49:48.101Z,79.05
2022-10-05T14:53:03.371Z,79.52
2022-10-05T14:56:13.618Z,80.31
2022-10-05T15:02:50.023Z,80.13
2022-10-05T15:05:31.409Z,80.14
2022-10-05T15:08:21.498Z,80.32
2022-10-05T15:11:12.800Z,79.79
2022-10-05T15:14:00.229Z,79.32
2022-10-05T15:16:45.972Z,78.56
2022-10-05T15:19:36.921Z,79.03
2022-10-05T15:22:33.990Z,79.65
2022-10-05T15:25:36.561Z,79.50
2022-10-05T15:28:39.048Z,79.70
2022-10-05T15:31:40.405Z,79.68
2022-10-05T15:34:36.872Z,79.87
2022-10-05T15:37:21.711Z,80.53
2022-10-05T15:40:07.493Z,80.77
2022-10-05T15:42:54.109Z,80.92
2022-10-05T15:45:53.061Z,81.56
2022-10-05T15:48:36.578Z,82.47
2022-10-05T15:51:37.409Z,82.98
2022-10-05T15:54:34.646Z,83.09
2022-10-05T16:00:24.852Z,84.32
2022-10-05T16:03:28.165Z,84.72
2022-10-05T16:06:29.951Z,84.60
2022-10-05T16:09:18.383Z,84.65
2022-10-05T16:12:04.500Z,84.48
2022-10-05T16:15:07.586Z,84.74
2022-10-05T16:18:12.959Z,85.42
2022-10-05T16:21:09.663Z,85.56
2022-10-05T16:24:32.038Z,85.77
2022-10-05T16:27:18.913Z,86.22
2022-10-05T16:30:19.557Z,86.11
2022-10-05T16:33:16.440Z,85.81
2022-10-05T16:36:05.440Z,85.76
2022-10-05T16:38:50.876Z,85.87
2022-10-05T16:41:41.959Z,85.91
2022-10-05T16:44:32.795Z,85.81
2022-10-05T16:47:37.599Z,85.70
2022-10-05T16:50:48.201Z,85.40
2022-10-05T16:53:31.824Z,84.88
2022-10-05T16:56:16.079Z,85.16
2022-10-05T16:59:05.812Z,85.13
2022-10-05T17:01:59.086Z,84.73
2022-10-05T17:04:51.957Z,84.38
2022-10-05T17:07:59.161Z,84.52
2022-10-05T17:11:01.966Z,84.62
2022-10-05T17:14:10.931Z,85.05
2022-10-05T17:17:03.332Z,85.33
2022-10-05T17:19:58.798Z,85.05
2022-10-05T17:22:53.643Z,85.23
2022-10-05T17:25:47.165Z,85.28
2022-10-05T17:28:51.782Z,85.96
2022-10-05T17:31:29.594Z,85.79
2022-10-05T17:34:36.025Z,86.10
2022-10-05T17:37:45.558Z,85.88
2022-10-05T17:40:54.244Z,85.68
2022-10-05T17:43:40.032Z,86.07
2022-10-05T17:46:31.168Z,86.14
2022-10-05T17:49:25.405Z,86.24
2022-10-05T17:52:28.313Z,85.71
2022-10-05T17:55:44.938Z,85.84
2022-10-05T18:02:36.590Z,85.50
2022-10-05T18:05:31.422Z,85.58
2022-10-05T18:08:38.696Z,85.37
2022-10-05T18:11:49.775Z,85.36
2022-10-05T18:14:34.560Z,86.01
2022-10-05T18:17:42.031Z,86.03
2022-10-05T18:20:55.213Z,86.43
2022-10-05T18:23:47.379Z,86.54
2022-10-05T18:26:53.573Z,86.55
2022-10-05T18:30:04.601Z,87.36
2022-10-05T18:33:29.186Z,88.23
2022-10-05T18:36:26.807Z,87.15
2022-10-05T18:39:21.334Z,84.08
2022-10-05T18:42:20.175Z,81.73
2022-10-05T18:45:02.884Z,80.24
2022-10-05T18:48:05.447Z,78.93
2022-10-05T18:51:10.530Z,77.79
2022-10-05T18:54:13.610Z,77.79
2022-10-05T18:57:11.201Z,78.54
2022-10-05T19:00:01.288Z,78.14
2022-10-05T19:02:43.909Z,78.25
2022-10-05T19:05:47.541Z,78.01
2022-10-05T19:08:42.322Z,77.52
2022-10-05T19:11:29.216Z,77.75
2022-10-05T19:14:31.222Z,78.35
2022-10-05T19:17:34.292Z,79.04
2022-10-05T19:20:44.879Z,78.64
2022-10-05T19:24:07.055Z,78.75
2022-10-05T19:27:00.009Z,78.01
2022-10-05T19:30:07.438Z,77.60
2022-10-05T19:33:10.550Z,76.90
2022-10-05T19:36:12.401Z,76.32
2022-10-05T19:39:17.415Z,76.66
2022-10-05T19:45:19.801Z,76.14
2022-10-05T19:48:07.764Z,75.82
2022-10-05T19:51:00.656Z,75.73
2022-10-05T19:53:47.126Z,75.39
2022-10-05T19:56:48.806Z,75.40
2022-10-05T19:59:26.937Z,76.31
2022-10-05T20:02:07.394Z,75.99
2022-10-05T20:04:49.696Z,75.31
2022-10-05T20:10:34.336Z,74.27
2022-10-05T20:13:36.846Z,74.96
2022-10-05T20:16:52.373Z,75.88
2022-10-05T20:19:58.323Z,75.95
2022-10-05T20:22:54.378Z,76.22
2022-10-05T20:25:51.873Z,76.70
2022-10-05T20:28:52.302Z,76.75
2022-10-05T20:31:28.904Z,76.34
2022-10-05T20:34:19.946Z,76.92
2022-10-05T20:37:02.940Z,76.96
2022-10-05T20:39:47.780Z,77.67
2022-10-05T20:42:24.649Z,77.47
2022-10-05T20:45:28.357Z,77.43
2022-10-05T20:48:05.874Z,77.58
2022-10-05T20:50:52.223Z,78.31
2022-10-05T20:53:35.375Z,78.28
2022-10-05T20:56:26.550Z,78.54
2022-10-05T20:59:07.802Z,78.45
2022-10-05T21:01:51.655Z,78.41
2022-10-05T21:04:41.294Z,78.52
2022-10-05T21:07:31.343Z,79.16
2022-10-05T21:10:13.754Z,79.43
2022-10-05T21:12:56.316Z,79.69
2022-10-05T21:15:35.699Z,79.14
2022-10-05T21:18:23.530Z,78.83
2022-10-05T21:21:02.179Z,79.40
2022-10-05T21:23:50.748Z,79.29
2022-10-05T21:26:31.917Z,79.30
2022-10-05T21:29:12.481Z,80.41
2022-10-05T21:37:58.156Z,80.55
2022-10-05T21:41:01.941Z,79.38
2022-10-05T21:43:43.173Z,79.04
2022-10-05T21:46:21.754Z,80.41
2022-10-05T21:49:03.578Z,81.24
2022-10-05T21:51:57.401Z,82.04
2022-10-05T21:54:33.940Z,82.81
2022-10-05T21:57:10.735Z,83.50
2022-10-05T22:00:08.510Z,83.64
2022-10-05T22:03:07.665Z,82.65
2022-10-05T22:05:52.697Z,83.04
2022-10-05T22:08:33.197Z,84.00
2022-10-05T22:14:08.077Z,85.18
2022-10-05T22:16:51.436Z,85.35
2022-10-05T22:28:46.937Z,85.38
2022-10-05T22:31:32.455Z,84.61
2022-10-05T22:34:10.144Z,85.05
2022-10-05T22:36:53.724Z,85.50
2022-10-05T22:39:33.079Z,85.68
2022-10-05T22:42:47.410Z,84.71
2022-10-05T22:45:29.177Z,84.37
2022-10-05T22:48:21.995Z,82.60
2022-10-05T22:51:10.779Z,81.77
2022-10-05T22:54:19.884Z,81.33
2022-10-05T22:57:06.302Z,80.51
2022-10-05T22:59:51.643Z,80.22
2022-10-05T23:02:53.754Z,79.67
2022-10-05T23:05:32.209Z,77.96
2022-10-05T23:11:01.001Z,78.08
2022-10-05T23:13:51.791Z,78.72
2022-10-05T23:16:38.170Z,78.02
2022-10-05T23:19:28.687Z,75.57
2022-10-05T23:25:22.051Z,68.08
2022-10-05T23:28:24.170Z,68.35
2022-10-05T23:31:11.562Z,70.98
2022-10-05T23:33:57.450Z,68.51
2022-10-05T23:36:51.829Z,71.53
2022-10-05T23:39:36.165Z,72.97
2022-10-05T23:42:19.657Z,74.01
2022-10-05T23:45:13.902Z,73.96
2022-10-05T23:47:52.282Z,72.63
2022-10-05T23:53:27.151Z,72.22
